• Join FlightAware (Why Join?)
  • Login
  • US Flag 
08:49AM EDT


 

Airport Tracker/Info


-or-


 

Live Flight TrackerFlight Track Log ✈ C-FEJP ✈ 25-May-2012 ✈ CYOW - CYYZ

Flight Track Log - Related Links

Times and Time Zones

All times are in EDT time to prevent confusion due to time zone crossing. See the C-FEJP flight status page for this flight to view local times or setup timezone preferences in your user account.

Time Position Orientation Groundspeed Altitude Reporting Facility
EDT Latitude Longitude Course Direction KTS MPH feet Rate Location/Type
01:27PM 45.3000 -75.6667 259° West 60 69 600  Level Montreal Center
01:32PM 45.2500 -76.0333 263° West 270 311 10,800 2,160 Climbing Toronto Center
01:33PM 45.2333 -76.2333 248° West 310 357 13,600 1,980 Climbing Montreal Center
01:34PM 45.2000 -76.3500 248° West 330 380 15,600 1,980 Climbing Montreal Center
01:35PM 45.1667 -76.4667 248° West 340 391 17,600 2,040 Climbing Montreal Center
01:36PM 45.1333 -76.5833 248° West 330 380 19,700 1,980 Climbing Montreal Center
01:37PM 45.1000 -76.7000 248° West 330 380 21,600 1,980 Climbing Montreal Center
01:38PM 45.0667 -76.8167 248° West 330 380 23,700 1,800 Climbing Montreal Center
01:39PM 45.0333 -76.9333 245° Southwest 330 380 25,200 1,440 Climbing Montreal Center
01:40PM 44.9833 -77.0833 248° West 330 380 26,600 1,380 Climbing Montreal Center
01:41PM 44.9500 -77.2000 215° Southwest 340 391 28,000 840 Climbing Montreal Center
01:42PM 44.9167 -77.2333 257° West 340 391 28,000  Level Toronto Center
01:43PM 44.8833 -77.4333 248° West 340 391 28,000  Level Montreal Center
01:44PM 44.8500 -77.5500 242° Southwest 340 391 28,000  Level Montreal Center
01:45PM 44.8000 -77.6833 239° Southwest 340 391 28,000  Level Montreal Center
01:46PM 44.7500 -77.8000 245° Southwest 340 391 28,000  Level Montreal Center
01:47PM 44.7333 -77.8500 239° Southwest 340 391 28,000  Level Toronto Center
01:48PM 44.6833 -77.9667 249° West 340 391 28,000  Level Toronto Center
01:49PM 44.6333 -78.1500 245° Southwest 340 391 28,000 -300 Level Montreal Center
01:50PM 44.6167 -78.2000 248° West 340 391 27,400 -1,860 Descending Toronto Center
01:51PM 44.5833 -78.3167 231° Southwest 330 380 25,100 -2,400 Descending Toronto Center
01:52PM 44.5167 -78.4333 245° Southwest 330 380 22,700 -2,400 Descending Toronto Center
01:53PM 44.4833 -78.5333 239° Southwest 330 380 20,400 -2,400 Descending Toronto Center
01:54PM 44.4333 -78.6500 235° Southwest 330 380 18,000 -2,280 Descending Toronto Center
01:55PM 44.3833 -78.7500 230° Southwest 320 368 15,900 -2,100 Descending Toronto Center
01:56PM 44.3333 -78.8333 235° Southwest 310 357 13,800 -2,160 Descending Toronto Center
01:57PM 44.2833 -78.9333 235° Southwest 290 334 11,600 -1,500 Descending Toronto Center
01:58PM 44.2500 -79.0000 235° Southwest 270 311 10,800 -840 Descending Toronto Center
01:59PM 44.2000 -79.1000 224° Southwest 250 288 10,000 -720 Descending Toronto Center
02:00PM 44.1500 -79.1667 235° Southwest 250 288 9,400 -600 Descending Toronto Center
02:01PM 44.1167 -79.2333 216° Southwest 220 253 8,800 -600 Descending Toronto Center
02:02PM 44.0667 -79.2833 193° South 220 253 8,200 -720 Descending Toronto Center
02:03PM 44.0167 -79.3000 190° South 220 253 7,400 -900 Descending Toronto Center
02:04PM 43.9500 -79.3167 194° South 220 253 6,400 -900 Descending Toronto Center
02:05PM 43.9000 -79.3333 216° Southwest 210 242 5,600 -780 Descending Toronto Center
02:06PM 43.8500 -79.3833 216° Southwest 210 242 4,900 -840 Descending Toronto Center
02:07PM 43.8167 -79.4167 230° Southwest 210 242 4,000 -1,020 Descending Toronto Center
02:08PM 43.7667 -79.5000 216° Southwest 200 230 2,900 -960 Descending Toronto Center
02:09PM 43.7333 -79.5333 216° Southwest 180 207 2,100 -840 Descending Toronto Center